Jackson, Missouri
Current Conditions -  °F | °C
As of 4:06 AM on Monday 22 Dec 2014 (Local Time) from KCGI Reporting Station
Overcast Overcast  
Wind Chill: 38°   Ceiling: 2700
Heat Index: 44°   Visibility: 10mi
Dew Point: 38°   Wind: 12mph
Humidity: 79%   Direction: 130°SE
Pressure: 29.85"   Gusts: NA
Location:  37.38°N, 89.67°W
Report Text: KCGI 221006Z AUTO 13010KT 10SM BKN027 OVC080 07/03 A2985 RMK AO2 T00670033 TSNO
Loading
Personal Weather Stations






























Interactive Weather Map New forecast layout! Learn more

10-Day Weather Forecast

Advertisements
Track Severe Weather on mobile